Time;durP1;ratioP1;P1;durP2;ratioP2;P2;SDS_P1;SDS_P2;PMS_P1;PMS_P2;Temp;Humidity;BMP_temperature;BMP_pressure;BME280_temperature;BME280_humidity;BME280_pressure;Samples;Min_cycle;Max_cycle;Signal;HPM_P1;HPM_P2
2023/02/18 00:01:32;;;;;;;27.25;12.48;;;8.40;99.90;;;;;;4986264;28;20049;-79
2023/02/18 00:04:00;;;;;;;30.92;12.15;;;8.50;99.90;;;;;;5007520;28;20073;-78
2023/02/18 00:06:33;;;;;;;27.48;11.15;;;8.60;99.90;;;;;;5014119;28;20403;-77
2023/02/18 00:09:03;;;;;;;22.70;10.48;;;8.80;99.90;;;;;;4983331;28;20536;-78
2023/02/18 00:11:35;;;;;;;21.63;11.70;;;9.00;99.90;;;;;;4986231;28;20194;-78
2023/02/18 00:14:05;;;;;;;26.52;11.52;;;9.10;99.90;;;;;;5001562;28;20099;-78
2023/02/18 00:16:32;;;;;;;23.45;10.00;;;9.20;99.90;;;;;;4998887;28;20769;-79
2023/02/18 00:19:03;;;;;;;19.73;8.75;;;9.20;99.90;;;;;;4995615;28;20109;-79
2023/02/18 00:21:33;;;;;;;19.05;8.77;;;9.20;99.90;;;;;;5014209;28;20060;-78
2023/02/18 00:24:00;;;;;;;19.67;9.07;;;8.40;99.90;;;;;;4975036;28;20053;-78
2023/02/18 00:26:27;;;;;;;20.80;9.60;;;9.20;99.90;;;;;;4996671;28;20048;-77
2023/02/18 00:28:55;;;;;;;20.27;11.00;;;9.40;99.90;;;;;;5000198;28;20129;-79
2023/02/18 00:31:28;;;;;;;22.63;10.57;;;9.20;99.90;;;;;;5001208;28;20059;-79
2023/02/18 00:33:59;;;;;;;16.13;8.65;;;9.40;99.90;;;;;;4998471;28;20416;-78
2023/02/18 00:36:28;;;;;;;15.55;8.45;;;9.50;99.90;;;;;;4999166;28;20053;-79
2023/02/18 00:38:58;;;;;;;23.02;9.40;;;9.70;99.90;;;;;;5001747;28;20482;-77
2023/02/18 00:41:27;;;;;;;19.17;8.27;;;9.50;99.90;;;;;;5012894;28;20048;-79
2023/02/18 00:43:55;;;;;;;15.93;8.25;;;9.70;99.90;;;;;;4976091;28;20145;-78
2023/02/18 00:46:23;;;;;;;13.30;7.25;;;9.80;99.90;;;;;;5002029;28;20060;-78
2023/02/18 00:48:52;;;;;;;10.13;5.85;;;9.90;99.90;;;;;;5003720;28;20079;-78
2023/02/18 00:51:20;;;;;;;10.93;5.32;;;10.50;99.90;;;;;;5016648;28;20067;-78
2023/02/18 00:53:48;;;;;;;12.10;5.72;;;10.40;99.90;;;;;;5016652;28;20056;-78
2023/02/18 00:56:16;;;;;;;9.07;5.15;;;10.40;99.90;;;;;;4991877;28;20277;-77
2023/02/18 00:58:43;;;;;;;9.02;4.15;;;11.30;99.90;;;;;;5028534;28;20064;-76
2023/02/18 01:01:11;;;;;;;8.98;3.85;;;10.80;99.90;;;;;;5018809;28;20083;-78
2023/02/18 01:03:41;;;;;;;8.20;4.18;;;10.70;99.90;;;;;;5020964;28;21001;-78
2023/02/18 01:06:09;;;;;;;6.13;2.92;;;10.80;99.90;;;;;;4976508;28;20121;-76
2023/02/18 01:08:38;;;;;;;7.63;3.45;;;10.90;99.90;;;;;;4996627;28;20440;-79
2023/02/18 01:11:08;;;;;;;7.43;3.20;;;10.10;99.90;;;;;;4986012;28;20410;-77
2023/02/18 01:13:36;;;;;;;7.53;3.10;;;10.90;99.90;;;;;;5020071;28;20506;-78
2023/02/18 01:16:05;;;;;;;6.60;2.90;;;11.00;99.90;;;;;;4998122;28;20052;-77
2023/02/18 01:18:34;;;;;;;7.60;3.25;;;11.00;99.90;;;;;;4984375;28;20052;-78
2023/02/18 01:21:07;;;;;;;7.57;3.00;;;11.10;99.90;;;;;;5015883;28;20135;-78
2023/02/18 01:23:40;;;;;;;6.70;2.58;;;11.30;99.90;;;;;;5003342;28;20498;-77
2023/02/18 01:26:08;;;;;;;;;;;10.40;99.90;;;;;;4993360;28;20081;-78
2023/02/18 01:28:37;;;;;;;5.40;2.35;;;11.30;99.90;;;;;;5000805;28;20497;-78
2023/02/18 01:31:08;;;;;;;6.63;2.97;;;11.20;99.90;;;;;;4993664;28;20350;-79
2023/02/18 01:33:39;;;;;;;4.38;1.90;;;11.20;99.90;;;;;;4999396;28;20056;-79
2023/02/18 01:36:09;;;;;;;3.92;2.05;;;11.40;99.90;;;;;;4999644;28;20158;-77
2023/02/18 01:38:38;;;;;;;7.60;3.03;;;11.40;99.90;;;;;;4999052;28;20052;-78
2023/02/18 01:41:05;;;;;;;4.95;2.58;;;11.30;99.90;;;;;;5013115;28;22740;-78
2023/02/18 01:43:33;;;;;;;6.63;2.53;;;11.20;99.90;;;;;;4979488;28;20057;-77
2023/02/18 01:46:04;;;;;;;6.80;2.90;;;11.60;99.90;;;;;;4999751;28;20090;-79
2023/02/18 01:48:41;;;;;;;6.40;3.15;;;11.60;99.90;;;;;;5004399;28;20423;-79
2023/02/18 01:51:20;;;;;;;6.10;2.20;;;11.50;99.90;;;;;;4983828;28;20057;-79
2023/02/18 01:53:59;;;;;;;8.95;4.18;;;11.60;99.90;;;;;;5014972;28;20468;-78
2023/02/18 01:56:51;;;;;;;4.20;2.50;;;11.40;99.90;;;;;;5016858;28;20155;-79
2023/02/18 01:59:36;;;;;;;5.22;2.03;;;11.70;99.90;;;;;;4975870;28;20105;-78
2023/02/18 02:02:07;;;;;;;3.78;1.73;;;11.60;99.90;;;;;;4996528;28;20059;-78
2023/02/18 02:04:34;;;;;;;5.97;2.40;;;11.60;99.90;;;;;;5009608;28;20424;-77
2023/02/18 02:07:02;;;;;;;6.35;2.92;;;11.40;99.90;;;;;;4996283;28;20071;-78
2023/02/18 02:09:31;;;;;;;5.82;2.17;;;11.50;99.90;;;;;;4975041;28;20040;-78
2023/02/18 02:12:21;;;;;;;4.53;1.20;;;11.70;99.90;;;;;;4999164;28;20055;-79
2023/02/18 02:15:12;;;;;;;5.15;1.77;;;11.90;99.90;;;;;;4997770;28;20534;-77
2023/02/18 02:18:27;;;;;;;3.83;1.10;;;11.60;99.90;;;;;;5016650;28;20057;-78
2023/02/18 02:21:13;;;;;;;3.63;0.80;;;12.00;99.90;;;;;;4999517;28;21251;-79
2023/02/18 02:24:22;;;;;;;3.28;1.17;;;13.20;99.90;;;;;;4993412;28;20075;-79
2023/02/18 02:27:22;;;;;;;2.72;1.08;;;11.90;99.50;;;;;;4994581;28;20051;-79
2023/02/18 02:30:25;;;;;;;4.32;1.05;;;11.90;99.70;;;;;;5012439;28;20056;-78
2023/02/18 02:32:58;;;;;;;2.75;0.88;;;11.60;99.90;;;;;;5028653;28;20055;-79
2023/02/18 02:35:31;;;;;;;3.50;1.00;;;11.80;99.90;;;;;;4981724;28;20060;-79
2023/02/18 02:38:20;;;;;;;3.50;1.80;;;11.70;99.90;;;;;;4995412;28;20751;-78
2023/02/18 02:40:58;;;;;;;2.42;1.00;;;10.80;99.90;;;;;;5031881;28;20221;-78
2023/02/18 02:43:34;;;;;;;4.55;1.55;;;11.50;99.90;;;;;;5016928;28;20048;-78
2023/02/18 02:46:22;;;;;;;3.40;1.00;;;11.50;99.90;;;;;;5020132;28;20053;-78
2023/02/18 02:49:06;;;;;;;3.20;0.60;;;11.40;99.90;;;;;;4977861;28;20055;-77
2023/02/18 02:51:40;;;;;;;2.13;0.50;;;11.50;99.90;;;;;;5024714;28;20069;-78
2023/02/18 02:54:13;;;;;;;1.65;0.30;;;11.80;99.90;;;;;;5036163;28;22326;-79
2023/02/18 02:56:40;;;;;;;0.63;0.20;;;12.00;99.20;;;;;;5007061;28;20062;-78
2023/02/18 02:59:21;;;;;;;0.88;0.30;;;12.50;97.50;;;;;;5012248;28;20072;-78
2023/02/18 03:02:08;;;;;;;1.35;0.10;;;12.70;96.60;;;;;;5013926;28;20061;-78
2023/02/18 03:04:53;;;;;;;1.50;0.20;;;12.90;95.70;;;;;;5017760;28;20703;-79
2023/02/18 03:07:48;;;;;;;2.55;0.52;;;13.20;94.70;;;;;;5006371;28;20056;-78
2023/02/18 03:10:52;;;;;;;4.38;0.25;;;13.20;94.30;;;;;;4999504;28;20122;-78
2023/02/18 03:13:39;;;;;;;1.80;0.20;;;13.30;93.80;;;;;;5014350;28;20048;-79
2023/02/18 03:16:25;;;;;;;1.40;0.20;;;13.30;93.40;;;;;;5017723;28;20138;-80
2023/02/18 03:19:24;;;;;;;1.45;0.35;;;13.40;93.30;;;;;;5006446;28;20548;-78
2023/02/18 03:22:02;;;;;;;1.45;0.30;;;13.30;93.40;;;;;;5000735;28;22391;-79
2023/02/18 03:24:34;;;;;;;1.13;0.50;;;13.20;93.50;;;;;;4999693;28;20122;-78
2023/02/18 03:27:08;;;;;;;;;;;13.30;93.20;;;;;;5001183;28;20052;-78
2023/02/18 03:29:37;;;;;;;1.10;0.30;;;13.40;93.00;;;;;;5016026;28;20028;-78
2023/02/18 03:32:07;;;;;;;1.38;0.20;;;13.20;93.20;;;;;;5013260;28;20055;-79
2023/02/18 03:34:39;;;;;;;0.50;0.13;;;13.40;92.80;;;;;;5012057;28;20956;-77
2023/02/18 03:37:08;;;;;;;0.60;0.30;;;13.30;93.20;;;;;;5016201;28;20048;-78
2023/02/18 03:39:40;;;;;;;1.23;0.20;;;13.20;93.40;;;;;;4979791;28;20088;-78
2023/02/18 03:42:08;;;;;;;1.40;0.10;;;13.30;93.20;;;;;;4991623;28;20098;-78
2023/02/18 03:44:35;;;;;;;1.92;0.20;;;13.30;93.20;;;;;;5013693;28;20061;-78
2023/02/18 03:47:03;;;;;;;0.88;0.10;;;12.40;92.70;;;;;;5016653;28;20065;-77
2023/02/18 03:49:31;;;;;;;1.05;0.10;;;13.20;93.50;;;;;;5027778;28;20048;-78
2023/02/18 03:51:59;;;;;;;0.80;0.28;;;12.90;94.30;;;;;;4998659;28;21133;-78
2023/02/18 03:54:26;;;;;;;1.75;0.10;;;13.10;93.80;;;;;;4981754;28;20061;-78
2023/02/18 03:56:54;;;;;;;0.60;0.17;;;13.20;93.60;;;;;;5010093;28;20546;-79
2023/02/18 03:59:21;;;;;;;0.85;0.20;;;13.20;93.70;;;;;;4976480;28;22444;-78
2023/02/18 04:01:48;;;;;;;2.05;0.20;;;13.10;93.90;;;;;;5012631;28;20044;-78
2023/02/18 04:04:16;;;;;;;4.40;0.35;;;13.10;94.10;;;;;;5019158;28;20047;-77
2023/02/18 04:06:44;;;;;;;1.10;0.30;;;13.00;94.20;;;;;;4995556;28;20049;-77
2023/02/18 04:09:11;;;;;;;1.17;0.10;;;12.90;94.40;;;;;;5015253;28;20499;-78
2023/02/18 04:11:40;;;;;;;1.85;0.30;;;13.00;94.40;;;;;;4973734;28;20056;-78
2023/02/18 04:14:08;;;;;;;2.75;0.60;;;13.00;94.50;;;;;;5034568;28;20055;-79
2023/02/18 04:16:35;;;;;;;1.30;0.20;;;13.10;94.30;;;;;;4996163;28;20076;-77
2023/02/18 04:19:02;;;;;;;4.00;0.20;;;13.10;94.20;;;;;;5017400;28;20720;-77
2023/02/18 04:21:30;;;;;;;0.77;0.20;;;12.90;94.50;;;;;;4998864;28;20941;-77
2023/02/18 04:23:58;;;;;;;2.33;0.22;;;11.80;94.20;;;;;;4996397;28;22621;-79
2023/02/18 04:26:26;;;;;;;1.02;0.30;;;13.20;94.70;;;;;;4987844;28;20106;-78
2023/02/18 04:28:53;;;;;;;0.88;0.20;;;13.00;94.50;;;;;;5000318;28;20052;-79
2023/02/18 04:31:20;;;;;;;1.42;0.60;;;12.90;94.40;;;;;;5005148;28;20049;-78
2023/02/18 04:33:48;;;;;;;2.22;0.30;;;12.90;94.70;;;;;;4996962;28;20052;-79
2023/02/18 04:36:15;;;;;;;1.13;0.30;;;11.80;94.30;;;;;;4995676;28;20056;-78
2023/02/18 04:38:42;;;;;;;1.23;0.40;;;12.90;94.50;;;;;;4988648;28;20064;-77
2023/02/18 04:41:11;;;;;;;2.17;0.47;;;13.10;94.30;;;;;;5014382;28;22127;-78
2023/02/18 04:43:39;;;;;;;1.05;0.30;;;13.10;94.30;;;;;;4993761;28;20048;-78
2023/02/18 04:46:06;;;;;;;1.23;0.47;;;14.40;94.90;;;;;;5012674;28;20056;-79
2023/02/18 04:48:34;;;;;;;1.05;0.40;;;13.00;94.40;;;;;;5004912;28;20033;-77
2023/02/18 04:51:02;;;;;;;2.33;0.45;;;13.00;94.70;;;;;;5008356;28;20061;-77
2023/02/18 04:53:30;;;;;;;2.05;0.38;;;12.90;94.50;;;;;;5011358;28;20078;-79
2023/02/18 04:55:58;;;;;;;2.33;0.45;;;12.80;94.80;;;;;;4998198;28;20056;-78
2023/02/18 04:58:25;;;;;;;2.42;0.45;;;12.80;94.80;;;;;;5001070;28;20562;-79
2023/02/18 05:00:53;;;;;;;1.50;0.52;;;12.80;94.90;;;;;;5002148;28;20045;-78
2023/02/18 05:03:21;;;;;;;3.28;0.60;;;12.80;95.10;;;;;;5016866;28;20529;-78
2023/02/18 05:05:48;;;;;;;6.85;1.50;;;12.80;95.30;;;;;;5020543;28;20070;-79
2023/02/18 05:08:15;;;;;;;2.75;0.68;;;12.70;95.70;;;;;;5034465;28;20568;-78
2023/02/18 05:10:43;;;;;;;3.28;0.90;;;12.70;96.60;;;;;;5006019;28;20052;-79
2023/02/18 05:13:10;;;;;;;3.72;0.90;;;12.70;97.00;;;;;;5018137;28;20047;-80
2023/02/18 05:15:37;;;;;;;2.63;0.68;;;12.60;97.10;;;;;;4996548;28;20097;-78
2023/02/18 05:18:05;;;;;;;2.45;1.00;;;12.40;97.30;;;;;;5020841;28;20114;-78
2023/02/18 05:20:32;;;;;;;3.75;1.23;;;12.30;97.50;;;;;;5002474;28;20056;-78
2023/02/18 05:23:00;;;;;;;3.70;1.23;;;12.30;97.60;;;;;;5001096;28;20049;-79
2023/02/18 05:25:27;;;;;;;13.85;5.32;;;12.40;97.30;;;;;;5017481;28;20083;-79
2023/02/18 05:27:54;;;;;;;8.93;3.85;;;12.30;97.60;;;;;;5036592;28;20072;-79
2023/02/18 05:30:21;;;;;;;6.53;2.95;;;12.40;97.40;;;;;;4996679;28;20051;-78
2023/02/18 05:32:48;;;;;;;10.15;4.30;;;12.50;97.20;;;;;;5001123;28;20064;-79
2023/02/18 05:35:17;;;;;;;3.42;1.13;;;12.50;97.10;;;;;;5012239;28;20049;-79
2023/02/18 05:37:44;;;;;;;4.32;1.63;;;12.40;97.30;;;;;;5014449;28;20818;-79
2023/02/18 05:40:11;;;;;;;5.05;1.00;;;12.20;97.70;;;;;;4977546;28;20052;-79
2023/02/18 05:42:38;;;;;;;2.55;1.02;;;12.40;97.40;;;;;;4997346;28;20099;-80
2023/02/18 05:45:06;;;;;;;4.20;0.93;;;11.90;97.90;;;;;;5018005;28;20044;-79
2023/02/18 05:47:33;;;;;;;2.60;0.70;;;12.20;98.10;;;;;;4987743;28;20063;-80
2023/02/18 05:50:00;;;;;;;3.17;1.10;;;12.20;98.00;;;;;;5012491;28;20614;-79
2023/02/18 05:52:27;;;;;;;4.55;1.30;;;12.20;98.10;;;;;;5002234;28;20546;-79
2023/02/18 05:54:55;;;;;;;2.70;1.10;;;12.20;98.10;;;;;;5019580;28;22413;-79
2023/02/18 05:57:22;;;;;;;2.90;0.98;;;12.10;98.30;;;;;;5019614;28;20573;-80
2023/02/18 05:59:49;;;;;;;3.20;0.90;;;12.00;98.80;;;;;;5001509;28;22249;-80
2023/02/18 06:02:17;;;;;;;1.48;0.60;;;12.00;99.50;;;;;;4989358;28;20053;-79
2023/02/18 06:04:44;;;;;;;2.08;0.65;;;12.00;99.30;;;;;;5024003;28;20055;-80
2023/02/18 06:07:11;;;;;;;1.63;0.60;;;11.80;99.70;;;;;;5026879;28;20036;-80
2023/02/18 06:09:38;;;;;;;2.70;0.90;;;11.80;99.90;;;;;;5030478;28;20049;-80
2023/02/18 06:12:06;;;;;;;3.00;0.80;;;12.00;99.90;;;;;;4998912;28;20052;-80
2023/02/18 06:14:33;;;;;;;2.50;0.40;;;12.10;99.50;;;;;;4996043;28;20048;-79
2023/02/18 06:17:00;;;;;;;1.13;0.30;;;12.20;99.10;;;;;;4996642;28;20149;-78
2023/02/18 06:19:27;;;;;;;1.73;0.60;;;12.10;99.10;;;;;;5013972;28;20045;-79
2023/02/18 06:21:55;;;;;;;2.30;0.40;;;12.10;99.80;;;;;;4996861;28;20103;-79
2023/02/18 06:24:22;;;;;;;1.80;0.60;;;12.10;99.90;;;;;;5038845;28;20052;-80
2023/02/18 06:26:49;;;;;;;1.73;0.82;;;11.90;99.90;;;;;;5039886;28;20053;-79
2023/02/18 06:29:16;;;;;;;0.85;0.50;;;11.80;99.90;;;;;;5019759;28;20074;-80
2023/02/18 06:31:43;;;;;;;1.73;0.40;;;11.70;99.90;;;;;;5018529;28;20518;-79
2023/02/18 06:34:11;;;;;;;2.47;0.40;;;11.70;99.90;;;;;;5018448;28;20481;-79
2023/02/18 06:36:39;;;;;;;0.70;0.30;;;11.60;99.90;;;;;;5001402;28;20049;-79
2023/02/18 06:39:06;;;;;;;2.63;0.30;;;11.70;99.90;;;;;;5018492;28;20499;-78
2023/02/18 06:41:33;;;;;;;0.90;0.30;;;11.80;99.90;;;;;;5016195;28;20045;-79
2023/02/18 06:44:00;;;;;;;1.15;0.25;;;11.80;99.90;;;;;;5007551;28;20985;-78
2023/02/18 06:46:29;;;;;;;1.80;1.13;;;11.80;99.90;;;;;;5014835;28;20060;-79
2023/02/18 06:48:56;;;;;;;3.55;2.00;;;11.70;99.90;;;;;;5001349;28;20049;-79
2023/02/18 06:51:23;;;;;;;5.20;3.03;;;11.60;99.90;;;;;;5015946;28;20118;-80
2023/02/18 06:53:50;;;;;;;3.92;2.35;;;11.50;99.90;;;;;;5024312;28;20628;-80
2023/02/18 06:56:18;;;;;;;5.63;2.72;;;11.50;99.90;;;;;;5032540;28;20053;-80
2023/02/18 06:58:45;;;;;;;1.63;0.60;;;11.40;99.90;;;;;;5000806;28;20056;-80
2023/02/18 07:01:12;;;;;;;2.00;0.82;;;11.40;99.90;;;;;;5016754;28;20056;-80
2023/02/18 07:03:39;;;;;;;5.20;1.30;;;11.40;99.90;;;;;;4998913;28;20133;-79
2023/02/18 07:06:06;;;;;;;5.60;2.05;;;11.40;99.90;;;;;;5021914;28;20126;-79
2023/02/18 07:08:36;;;;;;;6.07;1.35;;;11.50;99.90;;;;;;5029794;28;20071;-79
2023/02/18 07:11:03;;;;;;;7.85;2.67;;;11.40;99.90;;;;;;5022841;28;20542;-81
2023/02/18 07:13:30;;;;;;;8.30;2.60;;;11.50;99.90;;;;;;5018766;28;20056;-79
2023/02/18 07:15:57;;;;;;;4.07;1.25;;;11.40;99.90;;;;;;5017580;28;20048;-80
2023/02/18 07:18:25;;;;;;;3.53;1.23;;;11.40;99.90;;;;;;5010645;28;20157;-80
2023/02/18 07:20:52;;;;;;;4.10;1.83;;;11.40;99.90;;;;;;5004169;28;20048;-80
2023/02/18 07:23:19;;;;;;;4.28;1.67;;;11.40;99.90;;;;;;5002546;28;20060;-79
2023/02/18 07:25:46;;;;;;;5.05;3.08;;;11.40;99.90;;;;;;5004659;28;20075;-79
2023/02/18 07:28:13;;;;;;;2.88;1.40;;;11.40;99.90;;;;;;5017916;28;20523;-80
2023/02/18 07:30:40;;;;;;;2.25;0.90;;;11.40;99.90;;;;;;5016872;28;20087;-80
2023/02/18 07:33:07;;;;;;;5.03;2.17;;;11.40;99.90;;;;;;4999295;28;20129;-79
2023/02/18 07:35:34;;;;;;;2.88;1.48;;;11.50;99.90;;;;;;5015247;28;22092;-79
2023/02/18 07:38:03;;;;;;;2.78;1.30;;;11.50;99.90;;;;;;5009194;28;20060;-80
2023/02/18 07:40:30;;;;;;;181.00;68.75;;;11.50;99.90;;;;;;5007557;28;20815;-80
2023/02/18 07:42:57;;;;;;;5.47;3.17;;;11.60;99.90;;;;;;4997610;28;20060;-79
2023/02/18 07:45:24;;;;;;;7.03;3.00;;;11.70;99.90;;;;;;5012568;28;20043;-80
2023/02/18 07:47:52;;;;;;;3.85;1.48;;;11.80;99.90;;;;;;4994593;28;20056;-79
2023/02/18 07:50:19;;;;;;;7.07;3.22;;;11.80;99.90;;;;;;4993919;28;20595;-80
2023/02/18 07:52:46;;;;;;;6.90;3.00;;;11.80;99.90;;;;;;5025927;28;20041;-80
2023/02/18 07:55:13;;;;;;;2.50;1.00;;;11.80;99.90;;;;;;4997679;28;20086;-80
2023/02/18 07:57:56;;;;;;;4.32;1.73;;;11.90;99.90;;;;;;4991315;28;20552;-80
2023/02/18 08:00:23;;;;;;;5.88;2.83;;;11.90;99.90;;;;;;4990048;28;20630;-80
2023/02/18 08:02:50;;;;;;;7.03;3.85;;;11.90;99.90;;;;;;4994697;28;20784;-80
2023/02/18 08:05:17;;;;;;;14.57;5.55;;;11.90;99.90;;;;;;4994012;28;20060;-80
2023/02/18 08:07:44;;;;;;;2.78;1.30;;;11.90;99.90;;;;;;5035471;28;20068;-80
2023/02/18 08:10:11;;;;;;;15.93;4.85;;;12.00;99.90;;;;;;5024737;28;20041;-79
2023/02/18 08:12:38;;;;;;;3.65;1.52;;;12.10;99.90;;;;;;5012834;28;20103;-79
2023/02/18 08:15:06;;;;;;;1.67;0.47;;;12.10;99.90;;;;;;4996183;28;20045;-80
2023/02/18 08:17:33;;;;;;;3.72;1.80;;;12.20;99.90;;;;;;5008773;28;20052;-80
2023/02/18 08:20:00;;;;;;;2.45;0.40;;;12.20;99.90;;;;;;5011601;28;20795;-80
2023/02/18 08:22:27;;;;;;;3.00;1.20;;;12.30;99.90;;;;;;4997713;28;20041;-80
2023/02/18 08:24:58;;;;;;;8.52;5.03;;;12.50;99.90;;;;;;4999374;28;20045;-79
2023/02/18 08:27:25;;;;;;;6.05;2.33;;;12.60;99.90;;;;;;5017446;28;20723;-79
2023/02/18 08:29:52;;;;;;;29.70;14.73;;;12.70;99.90;;;;;;5036078;28;20055;-79
2023/02/18 08:32:19;;;;;;;16.38;6.82;;;12.90;99.90;;;;;;4997776;28;20049;-79
2023/02/18 08:34:46;;;;;;;4.13;1.90;;;12.90;99.90;;;;;;5015311;28;20384;-79
2023/02/18 08:37:13;;;;;;;1.60;0.63;;;13.00;99.90;;;;;;4985175;28;20191;-79
2023/02/18 08:39:40;;;;;;;5.93;3.58;;;13.10;99.90;;;;;;5017183;28;20060;-79
2023/02/18 08:42:07;;;;;;;1.70;0.85;;;13.10;99.80;;;;;;5000298;28;20705;-79
2023/02/18 08:44:34;;;;;;;5.43;2.13;;;13.00;99.90;;;;;;4999047;28;20512;-80
2023/02/18 08:47:02;;;;;;;9.07;4.45;;;13.00;99.90;;;;;;4984316;28;20891;-80
2023/02/18 08:49:49;;;;;;;8.50;3.80;;;13.00;99.50;;;;;;4996423;28;20482;-80
2023/02/18 08:52:16;;;;;;;7.93;2.75;;;13.10;99.10;;;;;;4995138;28;20046;-80
2023/02/18 08:54:43;;;;;;;1.27;0.73;;;13.10;98.80;;;;;;4965760;28;22454;-78
2023/02/18 08:57:10;;;;;;;1.30;0.40;;;13.10;98.50;;;;;;4970388;28;20092;-80
2023/02/18 08:59:38;;;;;;;1.20;0.38;;;13.30;97.70;;;;;;4987371;28;20053;-79
2023/02/18 09:02:05;;;;;;;13.80;6.88;;;13.40;97.20;;;;;;4989189;28;20049;-79
2023/02/18 09:04:32;;;;;;;16.50;7.50;;;13.50;96.70;;;;;;4987641;28;20045;-80
2023/02/18 09:07:00;;;;;;;44.05;20.83;;;13.50;96.60;;;;;;4976628;28;20053;-79
2023/02/18 09:09:27;;;;;;;36.53;18.10;;;13.60;96.60;;;;;;5002066;28;20084;-79
2023/02/18 09:11:54;;;;;;;37.67;17.23;;;13.80;96.10;;;;;;4988686;28;20081;-79
2023/02/18 09:14:21;;;;;;;49.55;23.42;;;13.80;95.70;;;;;;4976010;28;20046;-79
2023/02/18 09:16:49;;;;;;;14.00;8.68;;;13.90;95.50;;;;;;5031479;28;20095;-80
2023/02/18 09:19:17;;;;;;;10.13;6.93;;;14.00;94.70;;;;;;5003704;28;20072;-79
2023/02/18 09:21:45;;;;;;;3.60;2.35;;;13.80;94.80;;;;;;4987337;28;22025;-80
2023/02/18 09:24:12;;;;;;;2.20;1.58;;;13.60;95.20;;;;;;4995083;28;20050;-79
2023/02/18 09:26:39;;;;;;;2.13;1.70;;;13.60;95.50;;;;;;4968779;28;20070;-80
2023/02/18 09:29:06;;;;;;;1.58;0.73;;;13.50;95.90;;;;;;4989627;28;20061;-81
2023/02/18 09:31:33;;;;;;;4.53;1.50;;;13.40;96.30;;;;;;4974956;28;20060;-79
2023/02/18 09:34:02;;;;;;;0.77;0.40;;;13.40;95.80;;;;;;4987349;28;20488;-79
2023/02/18 09:36:29;;;;;;;1.88;0.35;;;13.40;95.50;;;;;;4987037;28;20041;-78
2023/02/18 09:38:56;;;;;;;1.08;0.50;;;13.40;95.30;;;;;;4986645;28;20079;-79
2023/02/18 09:41:33;;;;;;;1.88;0.55;;;13.50;95.20;;;;;;4984232;28;20049;-79
2023/02/18 09:44:21;;;;;;;0.95;0.28;;;13.60;95.10;;;;;;5054536;28;20144;-79
2023/02/18 09:46:52;;;;;;;1.35;0.30;;;13.70;94.60;;;;;;4990177;28;20072;-79
2023/02/18 09:49:25;;;;;;;18.73;6.18;;;13.80;94.70;;;;;;5014143;28;20408;-79
2023/02/18 09:51:54;;;;;;;3.03;2.10;;;13.90;95.00;;;;;;4994839;28;20552;-80
2023/02/18 09:54:22;;;;;;;6.15;3.53;;;13.80;94.90;;;;;;4981336;28;20117;-79
2023/02/18 09:56:50;;;;;;;8.32;5.50;;;13.90;94.80;;;;;;5026860;28;20049;-79
2023/02/18 09:59:21;;;;;;;17.13;10.45;;;13.90;94.70;;;;;;4994959;28;20048;-79
2023/02/18 10:01:51;;;;;;;6.75;4.40;;;13.90;94.50;;;;;;4993423;28;20064;-80
2023/02/18 10:04:40;;;;;;;2.38;1.05;;;13.90;94.60;;;;;;5012410;28;20700;-79
2023/02/18 10:07:20;;;;;;;3.85;0.98;;;13.80;94.40;;;;;;4978693;28;20049;-79
2023/02/18 10:09:50;;;;;;;4.18;2.95;;;13.90;93.90;;;;;;5011185;28;20059;-80
2023/02/18 10:12:22;;;;;;;1.55;0.40;;;14.00;94.20;;;;;;4997859;28;20727;-79
2023/02/18 10:14:58;;;;;;;0.80;0.43;;;14.20;94.00;;;;;;5016474;28;20060;-78
2023/02/18 10:17:31;;;;;;;2.20;2.00;;;14.30;93.50;;;;;;4997227;28;20147;-79
2023/02/18 10:19:59;;;;;;;0.82;0.63;;;14.40;93.00;;;;;;5011010;28;20069;-80
2023/02/18 10:22:29;;;;;;;1.80;0.80;;;14.40;92.90;;;;;;5002781;28;20060;-79
2023/02/18 10:25:01;;;;;;;3.97;1.70;;;14.40;93.10;;;;;;4996666;28;20053;-78
2023/02/18 10:27:31;;;;;;;0.77;0.30;;;14.40;92.80;;;;;;4999436;28;20927;-80
2023/02/18 10:30:18;;;;;;;1.35;0.35;;;14.20;93.00;;;;;;4982770;28;20492;-80
2023/02/18 10:32:47;;;;;;;5.75;2.20;;;14.10;93.20;;;;;;5031204;28;20057;-79
2023/02/18 10:35:37;;;;;;;2.60;0.32;;;14.10;93.40;;;;;;4999786;28;20404;-79
2023/02/18 10:38:24;;;;;;;0.85;0.20;;;14.20;92.80;;;;;;4995394;28;20525;-80
2023/02/18 10:40:55;;;;;;;0.45;0.17;;;14.30;92.20;;;;;;5016183;28;20052;-78
2023/02/18 10:43:34;;;;;;;1.10;0.20;;;14.30;92.10;;;;;;5008316;28;20788;-78
2023/02/18 10:46:33;;;;;;;0.20;0.10;;;14.40;92.30;;;;;;5014567;28;20056;-79
2023/02/18 10:49:12;;;;;;;0.68;0.10;;;14.50;92.00;;;;;;5010122;28;20057;-79
2023/02/18 10:51:47;;;;;;;0.75;0.28;;;14.40;92.00;;;;;;5024009;28;20625;-79
2023/02/18 10:54:14;;;;;;;1.42;0.28;;;14.40;91.90;;;;;;5032963;28;20589;-79
2023/02/18 10:56:50;;;;;;;3.00;0.93;;;14.30;92.30;;;;;;5011937;28;20811;-79
2023/02/18 10:59:21;;;;;;;0.52;0.10;;;14.20;92.40;;;;;;4997066;28;20045;-79
2023/02/18 11:02:16;;;;;;;0.45;0.20;;;14.20;92.10;;;;;;5013799;28;22751;-79
2023/02/18 11:04:44;;;;;;;0.82;0.30;;;14.20;92.40;;;;;;5017104;28;21473;-80
2023/02/18 11:07:15;;;;;;;1.88;0.20;;;14.20;92.40;;;;;;5009410;28;20618;-79
2023/02/18 11:09:47;;;;;;;2.55;0.70;;;14.20;92.70;;;;;;4993484;28;20710;-80
2023/02/18 11:12:21;;;;;;;3.55;0.43;;;14.10;93.20;;;;;;5020947;28;20055;-80
2023/02/18 11:15:02;;;;;;;1.88;0.73;;;14.10;93.30;;;;;;5009635;28;20052;-79
2023/02/18 11:17:32;;;;;;;19.85;9.18;;;14.00;93.80;;;;;;4995234;28;20587;-79
2023/02/18 11:20:02;;;;;;;4.45;1.38;;;14.00;93.60;;;;;;4996404;28;22441;-80
2023/02/18 11:22:39;;;;;;;15.35;9.70;;;14.00;93.90;;;;;;5016227;28;20535;-80
2023/02/18 11:25:23;;;;;;;6.25;2.08;;;14.00;93.90;;;;;;5000290;28;20528;-80
2023/02/18 11:28:00;;;;;;;4.93;2.53;;;13.90;94.90;;;;;;4996763;28;20117;-80
2023/02/18 11:30:33;;;;;;;14.18;8.80;;;13.80;95.40;;;;;;5025856;28;20052;-78
2023/02/18 11:33:24;;;;;;;4.28;2.30;;;13.70;95.80;;;;;;5008107;28;20037;-80
2023/02/18 11:35:54;;;;;;;3.72;2.03;;;13.80;95.70;;;;;;4990810;28;20041;-79
2023/02/18 11:38:27;;;;;;;4.25;3.13;;;13.80;96.00;;;;;;5015405;28;20083;-78
2023/02/18 11:40:56;;;;;;;5.82;1.85;;;13.90;95.90;;;;;;5022625;28;20053;-79
2023/02/18 11:43:29;;;;;;;4.43;2.72;;;13.90;96.10;;;;;;4997966;28;20056;-79
2023/02/18 11:46:08;;;;;;;4.00;1.88;;;13.90;96.10;;;;;;5014107;28;20052;-80
2023/02/18 11:48:35;;;;;;;3.22;1.42;;;13.80;96.20;;;;;;4998511;28;20058;-79
2023/02/18 11:51:04;;;;;;;3.00;1.20;;;13.80;96.30;;;;;;4999018;28;20049;-79
2023/02/18 11:53:35;;;;;;;2.58;1.30;;;13.90;96.50;;;;;;5010207;28;20451;-77
2023/02/18 11:56:05;;;;;;;4.97;2.75;;;14.10;95.80;;;;;;5002822;28;20048;-79
2023/02/18 11:58:42;;;;;;;2.47;1.05;;;14.30;95.30;;;;;;4999470;28;20080;-79
2023/02/18 12:01:26;;;;;;;3.05;1.33;;;14.40;95.30;;;;;;4988717;28;20088;-79
2023/02/18 12:03:57;;;;;;;3.08;1.45;;;14.70;94.90;;;;;;5012063;28;20774;-81
2023/02/18 12:06:30;;;;;;;5.00;2.13;;;15.10;93.80;;;;;;5009749;28;20049;-79
2023/02/18 12:09:02;;;;;;;3.83;2.80;;;15.20;93.00;;;;;;5015742;28;20049;-79
2023/02/18 12:11:38;;;;;;;2.58;0.73;;;15.40;93.00;;;;;;5001137;28;22365;-79
2023/02/18 12:14:18;;;;;;;5.43;3.15;;;15.30;92.60;;;;;;5016105;28;20060;-80
2023/02/18 12:17:23;;;;;;;1.67;0.68;;;15.40;92.20;;;;;;4997915;28;20052;-78
2023/02/18 12:20:02;;;;;;;2.10;0.43;;;15.20;92.00;;;;;;5002524;28;20085;-76
2023/02/18 12:22:35;;;;;;;1.15;0.30;;;15.10;92.00;;;;;;5010164;28;20071;-78
2023/02/18 12:25:03;;;;;;;2.75;0.60;;;15.10;91.90;;;;;;5016349;28;21078;-77
2023/02/18 12:28:05;;;;;;;1.70;0.60;;;15.00;92.00;;;;;;5031116;28;20041;-78
2023/02/18 12:30:44;;;;;;;2.23;0.30;;;15.10;91.90;;;;;;5015628;28;20049;-77
2023/02/18 12:33:30;;;;;;;1.15;0.28;;;15.00;91.60;;;;;;5020315;28;20293;-76
2023/02/18 12:36:06;;;;;;;1.77;0.40;;;15.00;91.30;;;;;;5015513;28;20067;-77
2023/02/18 12:38:54;;;;;;;1.00;0.35;;;15.00;91.50;;;;;;5006244;28;20087;-78
2023/02/18 12:41:25;;;;;;;3.40;1.25;;;15.00;91.20;;;;;;5003198;28;20049;-77
2023/02/18 12:44:16;;;;;;;1.20;0.50;;;15.10;90.20;;;;;;5017263;28;20426;-76
2023/02/18 12:47:16;;;;;;;1.80;0.63;;;15.30;89.20;;;;;;5011680;28;20083;-79
2023/02/18 12:49:59;;;;;;;1.50;0.73;;;15.60;88.20;;;;;;5013627;28;20052;-77
2023/02/18 12:52:48;;;;;;;1.65;1.15;;;15.70;86.50;;;;;;5013396;28;20060;-80
2023/02/18 12:55:26;;;;;;;0.75;0.40;;;15.80;86.00;;;;;;5001100;28;20060;-78
2023/02/18 12:58:12;;;;;;;1.80;0.30;;;15.80;85.90;;;;;;5030168;28;20040;-79
2023/02/18 13:01:10;;;;;;;1.15;0.52;;;15.80;85.30;;;;;;5016340;28;20450;-79
2023/02/18 13:03:47;;;;;;;1.98;1.75;;;15.70;85.20;;;;;;5004780;28;20344;-80
2023/02/18 13:06:41;;;;;;;0.30;0.10;;;15.60;85.40;;;;;;5007351;28;20500;-77
2023/02/18 13:09:32;;;;;;;0.95;0.30;;;15.50;85.80;;;;;;5028012;28;20076;-77
2023/02/18 13:12:23;;;;;;;0.40;0.17;;;15.50;86.30;;;;;;4999185;28;20052;-78